Elkton, FL (32033)

10:50 AM EDT on September 02, 2015 (GMT -0400)
Wildwood Pines | | Change Station
CLOSE
Current Station
Personal Weather Station
Location: Saint Augustine, FL
Elevation: 30 ft
Nearby Weather Stations

Elev 30 ft 29.81 °N, 81.35 °W | Updated 5 minutes ago

Partly Cloudy
Partly Cloudy
87.6 °F
Feels Like 104 °F
N
0.0
Wind Variable Wind from North
Gusts 0.0 mph

Today
High -- | Low -- °F
--% Chance of Precip.
Yesterday
High -- | Low -- °F
Precip. -- in
7:03 AM 7:47 PM
Waning Gibbous, 80% visible
Pressure 30.10 in
Visibility 6.0 miles
Clouds Mostly Cloudy 6500 ft
Heat Index 104 °F
Dew Point 80 °F
Humidity 79%
Rainfall 0.00 in
Snow Depth Not available.
UV 3 out of 12
Pollen 5.70 out of 12
Air Quality Not available.
Flu Activity Not available.
METAR KSGJ 021358Z 24004KT 6SM HZ BKN065 28/26 A3010 RMK AO2 SLP192 T02830256
Pressure 30.10 in
Visibility 6.0 miles
Clouds Mostly Cloudy 6500 ft
Heat Index 104 °F
Dew Point 80 °F
Humidity 79%
Rainfall 0.00 in
Snow Depth Not available.
UV 3 out of 12
Pollen 5.70 out of 12
Air Quality Not available.
Flu Activity Not available.
METAR KSGJ 021358Z 24004KT 6SM HZ BKN065 28/26 A3010 RMK AO2 SLP192 T02830256

10-Day Weather Forecast

×

Almanac

Astronomy

Sep. 02, 2015 Rise Set
Actual Time
Civil Twilight
Nautical Twilight
Astronomical Twilight
Moon
Length of Visible Light
Length of Day
Tomorrow will be .
, % of the Moon is Illuminated

Today's Extremes

State Highs State Lows

Community

WunderPhotos

Upload Photos

1,851,763 photos uploaded!

WunderBlogs® & News

Nearby

Air Quality

  Air Quality AQ Index Pollutant
Not available.

Snow Depth

Station Depth Elevation

Earthquake Activity

City Distance Mag. Time & Date
Minimum magnitude displayed is 2.5.

Coastal Water Temperatures

Place Temperature

Stations

Nearby Weather Stations

Station Location Temp. Windchill Dew Point Humidity Wind Precip. Elev Updated Type